Time;durP1;ratioP1;P1;durP2;ratioP2;P2;SDS_P1;SDS_P2;PMS_P1;PMS_P2;Temp;Humidity;BMP_temperature;BMP_pressure;BME280_temperature;BME280_humidity;BME280_pressure;Samples;Min_cycle;Max_cycle;Signal;HPM_P1;HPM_P2
2022/09/14 00:00:51;;;;;;;1.60;0.40;;;;;;;-140.72;0.00;52459.84;5035247;28;20025;-64
2022/09/14 00:03:17;;;;;;;0.77;0.20;;;;;;;-140.72;0.00;52463.91;5028912;28;20061;-63
2022/09/14 00:05:44;;;;;;;0.90;0.50;;;;;;;-140.72;0.00;52465.94;5028357;28;20409;-63
2022/09/14 00:08:10;;;;;;;1.10;0.25;;;;;;;-140.72;0.00;52488.25;5030088;28;20143;-63
2022/09/14 00:10:43;;;;;;;2.17;0.60;;;;;;;-140.72;0.00;52459.84;5039626;28;20501;-64
2022/09/14 00:13:10;;;;;;;2.80;0.30;;;;;;;-140.72;0.00;52459.84;5029462;28;20616;-63
2022/09/14 00:15:39;;;;;;;3.67;0.30;;;;;;;-140.72;0.00;52502.47;5035235;28;20366;-63
2022/09/14 00:18:06;;;;;;;1.08;0.28;;;;;;;-140.72;0.00;52459.84;5034838;28;20055;-64
2022/09/14 00:20:32;;;;;;;1.70;0.63;;;;;;;-140.72;0.00;52484.19;5038585;28;20018;-64
2022/09/14 00:22:59;;;;;;;0.35;0.20;;;;;;;-140.72;0.00;52498.41;5037834;28;20473;-65
2022/09/14 00:25:25;;;;;;;1.38;0.35;;;;;;;-140.72;0.00;52463.91;5037680;28;20025;-65
2022/09/14 00:27:51;;;;;;;5.57;0.65;;;;;;;-140.72;0.00;52474.06;5034445;28;20029;-64
2022/09/14 00:30:16;;;;;;;1.90;0.40;;;;;;;-140.72;0.00;52467.97;5036924;28;20261;-65
2022/09/14 00:32:42;;;;;;;1.38;0.25;;;;;;;-140.72;0.00;52488.25;5031728;28;20072;-64
2022/09/14 00:35:07;;;;;;;2.20;0.43;;;;;;;-140.72;0.00;52508.56;5039270;28;20056;-64
2022/09/14 00:37:33;;;;;;;1.83;0.70;;;;;;;-140.72;0.00;52435.50;5039853;28;20133;-64
2022/09/14 00:39:59;;;;;;;0.95;0.20;;;;;;;-140.72;0.00;52504.50;5041152;28;20111;-64
2022/09/14 00:42:27;;;;;;;0.57;0.40;;;;;;;-140.72;0.00;52463.91;5036486;28;20416;-64
2022/09/14 00:45:07;;;;;;;1.85;0.52;;;;;;;-140.72;0.00;52459.84;5034333;28;20018;-64
2022/09/14 00:47:33;;;;;;;;;;;;;;;-140.72;0.00;52510.59;5032529;28;20022;-64
2022/09/14 00:50:01;;;;;;;2.28;0.22;;;;;;;-140.72;0.00;52478.13;5036191;28;19920;-63
2022/09/14 00:52:32;;;;;;;4.30;1.05;;;;;;;-140.72;0.00;52484.19;5032128;28;20029;-63
2022/09/14 00:55:01;;;;;;;1.05;0.45;;;;;;;-140.72;0.00;52506.53;5028704;28;20219;-64
2022/09/14 00:57:30;;;;;;;4.70;1.23;;;;;;;-140.72;0.00;52478.13;5028274;28;20238;-63
2022/09/14 00:59:56;;;;;;;3.03;0.77;;;;;;;-140.72;0.00;52455.78;5026110;28;20469;-63
2022/09/14 01:02:25;;;;;;;2.17;0.70;;;;;;;-140.72;0.00;52482.16;5034326;28;20013;-64
2022/09/14 01:04:51;;;;;;;3.30;0.43;;;;;;;-140.72;0.00;52488.25;5035302;28;20112;-64
2022/09/14 01:07:48;;;;;;;1.17;0.57;;;;;;;-140.72;0.00;52476.09;5034395;28;20128;-64
2022/09/14 01:10:22;;;;;;;0.68;0.45;;;;;;;-140.72;0.00;52484.19;5032906;28;20068;-64
2022/09/14 01:13:33;;;;;;;2.28;1.10;;;;;;;-140.72;0.00;52463.91;5035699;28;20080;-64
2022/09/14 01:16:11;;;;;;;0.60;0.40;;;;;;;-140.72;0.00;52492.31;5030093;28;20033;-63
2022/09/14 01:18:46;;;;;;;1.00;0.40;;;;;;;-140.72;0.00;52510.59;5029780;28;20462;-64
2022/09/14 01:21:23;;;;;;;3.63;0.50;;;;;;;-140.72;0.00;52465.94;5031483;28;20035;-64
2022/09/14 01:23:59;;;;;;;1.17;0.52;;;;;;;-140.72;0.00;52488.25;5034136;28;20073;-64
2022/09/14 01:26:47;;;;;;;4.32;0.70;;;;;;;-140.72;0.00;52467.97;5037103;28;20120;-65
2022/09/14 01:29:35;;;;;;;0.80;0.30;;;;;;;-140.72;0.00;52472.03;5035947;28;20061;-64
2022/09/14 01:32:08;;;;;;;1.35;0.82;;;;;;;-140.72;0.00;52472.03;5011319;28;20422;-64
2022/09/14 01:35:10;;;;;;;1.13;0.40;;;;;;;-140.72;0.00;52492.31;5033570;28;20036;-64
2022/09/14 01:37:43;;;;;;;2.30;0.60;;;;;;;-140.72;0.00;52504.50;5026463;28;20030;-63
2022/09/14 01:40:22;;;;;;;3.17;0.50;;;;;;;-140.72;0.00;52476.09;5033762;28;20052;-63
2022/09/14 01:42:54;;;;;;;0.93;0.60;;;;;;;-140.72;0.00;52520.72;5030410;28;20268;-66
2022/09/14 01:45:23;;;;;;;1.02;0.52;;;;;;;-140.72;0.00;52500.44;5035212;28;20076;-63
2022/09/14 01:48:05;;;;;;;2.17;0.45;;;;;;;-140.72;0.00;52516.66;5039052;28;20035;-65
2022/09/14 01:50:38;;;;;;;5.07;0.68;;;;;;;-140.72;0.00;52488.25;5040094;28;20090;-63
2022/09/14 01:53:42;;;;;;;0.90;0.50;;;;;;;-140.72;0.00;52486.22;5035607;28;20033;-62
2022/09/14 01:56:21;;;;;;;3.85;0.60;;;;;;;-140.72;0.00;52522.75;5035422;28;20463;-63
2022/09/14 01:58:52;;;;;;;1.63;0.70;;;;;;;-140.72;0.00;52510.59;5037451;28;20033;-63
2022/09/14 02:01:29;;;;;;;0.88;0.30;;;;;;;-140.72;0.00;52478.13;5037654;28;20454;-63
2022/09/14 02:03:59;;;;;;;1.75;0.65;;;;;;;-140.72;0.00;52532.91;5032965;28;20017;-63
2022/09/14 02:06:33;;;;;;;3.20;0.50;;;;;;;-140.72;0.00;52510.59;5032050;28;20045;-65
2022/09/14 02:08:59;;;;;;;1.77;0.45;;;;;;;-140.72;0.00;52480.16;5034833;28;20041;-64
2022/09/14 02:11:25;;;;;;;4.40;0.70;;;;;;;-140.72;0.00;52470.00;5041914;28;20025;-64
2022/09/14 02:13:50;;;;;;;1.05;0.50;;;;;;;-140.72;0.00;52482.16;5038736;28;20037;-64
2022/09/14 02:16:16;;;;;;;0.85;0.55;;;;;;;-140.72;0.00;52492.31;5030680;28;20045;-64
2022/09/14 02:18:42;;;;;;;2.58;0.40;;;;;;;-140.72;0.00;52484.19;5038766;28;20083;-63
2022/09/14 02:21:18;;;;;;;3.33;0.77;;;;;;;-140.72;0.00;52465.94;5036667;28;20048;-64
2022/09/14 02:23:45;;;;;;;0.70;0.60;;;;;;;-140.72;0.00;52476.09;5041558;28;20033;-65
2022/09/14 02:26:12;;;;;;;0.47;0.30;;;;;;;-140.72;0.00;52528.84;5041967;28;20532;-64
2022/09/14 02:28:38;;;;;;;0.95;0.40;;;;;;;-140.72;0.00;52557.25;5044557;28;20131;-64
2022/09/14 02:31:11;;;;;;;2.85;0.55;;;;;;;-140.72;0.00;52520.72;5036493;28;20100;-64
2022/09/14 02:33:55;;;;;;;3.28;1.58;;;;;;;-140.72;0.00;52512.59;5033151;28;20088;-64
2022/09/14 02:36:29;;;;;;;1.73;0.90;;;;;;;-140.72;0.00;52504.50;5032891;28;20214;-64
2022/09/14 02:39:09;;;;;;;4.22;1.10;;;;;;;-140.72;0.00;52506.53;5032398;28;20034;-63
2022/09/14 02:41:53;;;;;;;2.40;0.40;;;;;;;-140.72;0.00;52453.75;5033501;28;20037;-64
2022/09/14 02:45:00;;;;;;;1.88;0.60;;;;;;;-140.72;0.00;52516.66;5032361;28;20037;-63
2022/09/14 02:47:34;;;;;;;1.38;0.45;;;;;;;-140.72;0.00;52500.44;5036081;28;20048;-62
2022/09/14 02:50:28;;;;;;;1.20;0.52;;;;;;;-140.72;0.00;52508.56;5034089;28;20025;-63
2022/09/14 02:53:03;;;;;;;3.22;0.50;;;;;;;-140.72;0.00;52530.88;5045713;28;20040;-63
2022/09/14 02:55:34;;;;;;;0.75;0.45;;;;;;;-140.72;0.00;52496.38;5030816;28;20351;-63
2022/09/14 02:58:11;;;;;;;0.90;0.43;;;;;;;-140.72;0.00;52500.44;5031583;28;20033;-62
2022/09/14 03:00:44;;;;;;;1.85;0.77;;;;;;;-140.72;0.00;52504.50;5031109;28;20034;-62
2022/09/14 03:03:12;;;;;;;2.90;0.68;;;;;;;-140.72;0.00;52516.66;5030994;28;20030;-62
2022/09/14 03:05:38;;;;;;;1.42;0.55;;;;;;;-140.72;0.00;52506.53;5031191;28;20037;-63
2022/09/14 03:08:04;;;;;;;3.00;0.55;;;;;;;-140.72;0.00;52512.59;5031086;28;20544;-64
2022/09/14 03:10:31;;;;;;;0.82;0.50;;;;;;;-140.72;0.00;52516.66;5030899;28;20025;-62
2022/09/14 03:12:57;;;;;;;0.70;0.50;;;;;;;-140.72;0.00;52508.56;5037265;28;20465;-62
2022/09/14 03:15:23;;;;;;;2.00;0.75;;;;;;;-140.72;0.00;52530.88;5034161;28;20030;-64
2022/09/14 03:17:50;;;;;;;3.88;0.82;;;;;;;-140.72;0.00;52498.41;5031024;28;20067;-64
2022/09/14 03:20:20;;;;;;;1.98;0.50;;;;;;;-140.72;0.00;52480.16;5030819;28;20025;-63
2022/09/14 03:22:46;;;;;;;4.07;0.75;;;;;;;-140.72;0.00;52514.63;5031409;28;20457;-64
2022/09/14 03:25:11;;;;;;;2.33;0.50;;;;;;;-140.72;0.00;52532.91;5030065;28;20041;-63
2022/09/14 03:27:36;;;;;;;1.02;0.50;;;;;;;-140.72;0.00;52512.59;5030916;28;20025;-63
2022/09/14 03:30:04;;;;;;;2.35;0.50;;;;;;;-140.72;0.00;52482.16;5031550;28;20025;-63
2022/09/14 03:32:29;;;;;;;3.15;0.45;;;;;;;-140.72;0.00;52541.03;5030407;28;20540;-63
2022/09/14 03:34:56;;;;;;;0.80;0.40;;;;;;;-140.72;0.00;52528.84;5031372;28;20388;-63
2022/09/14 03:37:21;;;;;;;1.48;0.60;;;;;;;-140.72;0.00;52502.47;5030897;28;20025;-62
2022/09/14 03:39:46;;;;;;;0.88;0.43;;;;;;;-140.72;0.00;52514.63;5029586;28;20036;-64
2022/09/14 03:42:12;;;;;;;1.50;0.75;;;;;;;-140.72;0.00;52551.16;5031238;28;20032;-63
2022/09/14 03:44:37;;;;;;;1.65;0.65;;;;;;;-140.72;0.00;52510.59;5030953;28;20025;-63
2022/09/14 03:47:02;;;;;;;1.35;0.47;;;;;;;-140.72;0.00;52528.84;5029858;28;20021;-62
2022/09/14 03:49:28;;;;;;;2.20;0.65;;;;;;;-140.72;0.00;52482.16;5030595;28;20039;-64
2022/09/14 03:51:53;;;;;;;1.08;0.57;;;;;;;-140.72;0.00;52496.38;5038314;28;20033;-65
2022/09/14 03:54:18;;;;;;;1.75;0.50;;;;;;;-140.72;0.00;52508.56;5036272;28;20022;-63
2022/09/14 03:56:44;;;;;;;3.22;0.77;;;;;;;-140.72;0.00;52522.75;5030606;28;20032;-64
2022/09/14 03:59:09;;;;;;;5.75;0.82;;;;;;;-140.72;0.00;52492.31;5029756;28;20061;-64
2022/09/14 04:01:35;;;;;;;1.50;0.60;;;;;;;-140.72;0.00;52496.38;5029584;28;20109;-64
2022/09/14 04:04:01;;;;;;;1.83;0.50;;;;;;;-140.72;0.00;52470.00;5029909;28;20040;-65
2022/09/14 04:06:26;;;;;;;1.65;0.50;;;;;;;-140.72;0.00;52522.75;5037634;28;20040;-65
2022/09/14 04:08:52;;;;;;;1.08;0.50;;;;;;;-140.72;0.00;52492.31;5035547;28;20041;-64
2022/09/14 04:11:20;;;;;;;2.97;0.60;;;;;;;-140.72;0.00;52494.34;5030574;28;20047;-65
2022/09/14 04:13:46;;;;;;;1.88;0.68;;;;;;;-140.72;0.00;52500.44;5030867;28;20035;-63
2022/09/14 04:16:12;;;;;;;0.82;0.38;;;;;;;-140.72;0.00;52465.94;5038595;28;20025;-66
2022/09/14 04:18:38;;;;;;;1.67;0.60;;;;;;;-140.72;0.00;52498.41;5041950;28;20029;-65
2022/09/14 04:21:06;;;;;;;1.33;0.50;;;;;;;-140.72;0.00;52498.41;5038606;28;20083;-66
2022/09/14 04:23:32;;;;;;;0.50;0.22;;;;;;;-140.72;0.00;52528.84;5038185;28;20033;-64
2022/09/14 04:25:58;;;;;;;0.30;0.30;;;;;;;-140.72;0.00;52532.91;5038845;28;20047;-64
2022/09/14 04:28:24;;;;;;;1.02;0.30;;;;;;;-140.72;0.00;52512.59;5029056;28;20032;-65
2022/09/14 04:30:54;;;;;;;1.92;0.90;;;;;;;-140.72;0.00;52512.59;5029923;28;20033;-64
2022/09/14 04:33:19;;;;;;;1.05;0.60;;;;;;;-140.72;0.00;52500.44;5025889;28;20485;-64
2022/09/14 04:35:45;;;;;;;3.50;1.05;;;;;;;-140.72;0.00;52520.72;5034707;28;20051;-65
2022/09/14 04:38:10;;;;;;;8.20;0.63;;;;;;;-140.72;0.00;52539.00;5037718;28;20115;-64
2022/09/14 04:40:40;;;;;;;3.17;0.95;;;;;;;-140.72;0.00;52528.84;5035129;28;20095;-65
2022/09/14 04:43:06;;;;;;;0.85;0.45;;;;;;;-140.72;0.00;52526.81;5029353;28;20021;-63
2022/09/14 04:45:31;;;;;;;3.22;0.55;;;;;;;-140.72;0.00;52474.06;5031602;28;20082;-63
2022/09/14 04:47:57;;;;;;;2.00;0.68;;;;;;;-140.72;0.00;52541.03;5031555;28;20034;-64
2022/09/14 04:50:22;;;;;;;1.33;0.40;;;;;;;-140.72;0.00;52494.34;5025697;28;20083;-64
2022/09/14 04:52:47;;;;;;;1.10;0.40;;;;;;;-140.72;0.00;52516.66;5016897;28;20046;-64
2022/09/14 04:55:13;;;;;;;3.50;0.63;;;;;;;-140.72;0.00;52508.56;5028719;28;20169;-64
2022/09/14 04:57:38;;;;;;;2.45;0.57;;;;;;;-140.72;0.00;52492.31;5022910;28;20074;-63
2022/09/14 05:00:04;;;;;;;2.42;0.77;;;;;;;-140.72;0.00;52494.34;5031182;28;20436;-64
2022/09/14 05:02:30;;;;;;;1.38;0.57;;;;;;;-140.72;0.00;52516.66;5036688;28;20695;-64
2022/09/14 05:04:57;;;;;;;5.35;1.10;;;;;;;-140.72;0.00;52484.19;5044699;28;20021;-64
2022/09/14 05:07:23;;;;;;;2.28;0.73;;;;;;;-140.72;0.00;52528.84;5028477;28;20053;-64
2022/09/14 05:09:48;;;;;;;1.13;0.57;;;;;;;-140.72;0.00;52520.72;5038499;28;20020;-64
2022/09/14 05:12:13;;;;;;;4.30;1.05;;;;;;;-140.72;0.00;52541.03;5026042;28;20037;-63
2022/09/14 05:14:39;;;;;;;4.13;1.20;;;;;;;-140.72;0.00;52494.34;5034532;28;20029;-65
2022/09/14 05:17:04;;;;;;;2.08;1.40;;;;;;;-140.72;0.00;52524.78;5030744;28;20033;-65
2022/09/14 05:19:29;;;;;;;1.48;0.88;;;;;;;-140.72;0.00;52545.06;5028272;28;20025;-65
2022/09/14 05:21:55;;;;;;;1.75;1.00;;;;;;;-140.72;0.00;52536.97;5031283;28;20140;-64
2022/09/14 05:24:20;;;;;;;4.45;1.38;;;;;;;-140.72;0.00;52512.59;5027337;28;20026;-64
2022/09/14 05:26:46;;;;;;;2.47;0.90;;;;;;;-140.72;0.00;52514.63;5030800;28;20040;-64
2022/09/14 05:29:13;;;;;;;2.67;0.70;;;;;;;-140.72;0.00;52536.97;5035993;28;20103;-64
2022/09/14 05:31:39;;;;;;;2.85;0.75;;;;;;;-140.72;0.00;52541.03;5033095;28;20037;-64
2022/09/14 05:34:05;;;;;;;0.93;0.60;;;;;;;-140.72;0.00;52494.34;5033035;28;20492;-64
2022/09/14 05:36:33;;;;;;;2.63;0.82;;;;;;;-140.72;0.00;52524.78;5029529;28;20022;-64
2022/09/14 05:38:59;;;;;;;5.82;0.90;;;;;;;-140.72;0.00;52520.72;5029631;28;20034;-64
2022/09/14 05:41:25;;;;;;;2.30;0.80;;;;;;;-140.72;0.00;52549.13;5035224;28;20112;-63
2022/09/14 05:43:50;;;;;;;1.42;0.57;;;;;;;-140.72;0.00;52518.69;5033183;28;20584;-63
2022/09/14 05:46:20;;;;;;;1.50;0.73;;;;;;;-140.72;0.00;52508.56;5032131;28;20489;-63
2022/09/14 05:48:50;;;;;;;5.25;1.13;;;;;;;-140.72;0.00;52504.50;5033632;28;20472;-65
2022/09/14 05:51:18;;;;;;;1.33;0.57;;;;;;;-140.72;0.00;52528.84;5041046;28;20068;-63
2022/09/14 05:53:49;;;;;;;1.00;0.47;;;;;;;-140.72;0.00;52541.03;5035302;28;20276;-64
2022/09/14 05:56:15;;;;;;;1.27;0.77;;;;;;;-140.72;0.00;52543.03;5032262;28;20107;-64
2022/09/14 05:58:41;;;;;;;3.05;0.70;;;;;;;-140.72;0.00;52496.38;5035247;28;20476;-64
2022/09/14 06:01:24;;;;;;;1.30;0.50;;;;;;;-140.72;0.00;52514.63;5032224;28;20029;-63
2022/09/14 06:03:53;;;;;;;0.82;0.40;;;;;;;-140.72;0.00;52532.91;5038999;28;20029;-73
2022/09/14 06:06:19;;;;;;;4.65;1.00;;;;;;;-140.72;0.00;52526.81;5032017;28;20042;-73
2022/09/14 06:08:45;;;;;;;2.60;0.77;;;;;;;-140.72;0.00;52510.59;5032734;28;20132;-74
2022/09/14 06:11:14;;;;;;;5.43;1.10;;;;;;;-140.72;0.00;52524.78;5032806;28;20168;-73
2022/09/14 06:13:41;;;;;;;2.28;0.93;;;;;;;-140.72;0.00;52526.81;5043694;28;20457;-73
2022/09/14 06:16:09;;;;;;;2.92;1.48;;;;;;;-140.72;0.00;52518.69;5032111;28;20049;-72
2022/09/14 06:18:36;;;;;;;1.73;0.85;;;;;;;-140.72;0.00;52591.75;5039782;28;20161;-73
2022/09/14 06:21:02;;;;;;;2.58;0.95;;;;;;;-140.72;0.00;52516.66;5031696;28;20167;-73
2022/09/14 06:23:28;;;;;;;2.47;1.20;;;;;;;-140.72;0.00;52524.78;5032105;28;20257;-73
2022/09/14 06:25:55;;;;;;;3.40;0.90;;;;;;;-140.72;0.00;52545.06;5037172;28;20466;-73
2022/09/14 06:28:22;;;;;;;1.13;0.82;;;;;;;-140.72;0.00;52561.31;5036396;28;20362;-73
2022/09/14 06:30:48;;;;;;;2.75;1.08;;;;;;;-140.72;0.00;52524.78;5033158;28;20040;-74
2022/09/14 06:33:14;;;;;;;1.50;0.70;;;;;;;-140.72;0.00;52506.53;5031160;28;20033;-73
2022/09/14 06:35:41;;;;;;;1.33;0.52;;;;;;;-140.72;0.00;52539.00;5034119;28;20116;-73
2022/09/14 06:38:07;;;;;;;2.05;0.75;;;;;;;-140.72;0.00;52528.84;5033758;28;20107;-74
2022/09/14 06:40:32;;;;;;;2.63;0.80;;;;;;;-140.72;0.00;52532.91;5037544;28;20030;-74
2022/09/14 06:43:01;;;;;;;1.02;0.80;;;;;;;-140.72;0.00;52516.66;5031716;28;20105;-74
2022/09/14 06:45:28;;;;;;;3.50;1.17;;;;;;;-140.72;0.00;52532.91;5038279;28;20026;-74
2022/09/14 06:47:54;;;;;;;2.90;0.80;;;;;;;-140.72;0.00;52545.06;5032078;28;20396;-74
2022/09/14 06:50:23;;;;;;;3.25;1.10;;;;;;;-140.72;0.00;52488.25;5031631;28;20292;-74
2022/09/14 06:52:48;;;;;;;2.83;1.02;;;;;;;-140.72;0.00;52534.94;5030546;28;20037;-74
2022/09/14 06:55:17;;;;;;;2.00;0.63;;;;;;;-140.72;0.00;52502.47;5036704;28;20040;-74
2022/09/14 06:57:42;;;;;;;1.08;0.63;;;;;;;-140.72;0.00;52457.81;5036522;28;20025;-74
2022/09/14 07:00:08;;;;;;;4.65;1.00;;;;;;;-140.72;0.00;52486.22;5031580;28;20033;-74
2022/09/14 07:02:33;;;;;;;1.40;0.57;;;;;;;-140.72;0.00;52528.84;5041929;28;20032;-74
2022/09/14 07:05:02;;;;;;;4.38;1.17;;;;;;;-140.72;0.00;52518.69;5030459;28;20515;-74
2022/09/14 07:07:28;;;;;;;2.67;1.20;;;;;;;-140.72;0.00;52534.94;5033416;28;20051;-74
2022/09/14 07:09:53;;;;;;;1.75;0.68;;;;;;;-140.72;0.00;52532.91;5031756;28;20495;-74
2022/09/14 07:12:21;;;;;;;1.27;0.43;;;;;;;-140.72;0.00;52496.38;5039796;28;20029;-74
2022/09/14 07:14:46;;;;;;;2.15;0.55;;;;;;;-140.72;0.00;52500.44;5031732;28;20036;-73
2022/09/14 07:17:15;;;;;;;1.55;0.75;;;;;;;-140.72;0.00;52496.38;5030418;28;20021;-75
2022/09/14 07:19:41;;;;;;;1.00;0.70;;;;;;;-140.72;0.00;52524.78;5031574;28;20074;-73
2022/09/14 07:22:07;;;;;;;0.90;0.45;;;;;;;-140.72;0.00;52506.53;5031170;28;20513;-74
2022/09/14 07:24:32;;;;;;;2.75;1.42;;;;;;;-140.72;0.00;52514.63;5030827;28;20033;-63
2022/09/14 07:26:58;;;;;;;0.85;0.55;;;;;;;-140.72;0.00;52480.16;5030583;28;20029;-63
2022/09/14 07:29:23;;;;;;;4.03;0.63;;;;;;;-140.72;0.00;52484.19;5031456;28;20063;-62
2022/09/14 07:31:52;;;;;;;10.75;1.10;;;;;;;-140.72;0.00;52484.19;5029411;28;20034;-63
2022/09/14 07:34:18;;;;;;;1.85;0.93;;;;;;;-140.72;0.00;52508.56;5045005;28;20052;-63
2022/09/14 07:36:45;;;;;;;3.97;0.70;;;;;;;-140.72;0.00;52526.81;5031272;28;20076;-63
2022/09/14 07:39:17;;;;;;;1.50;0.75;;;;;;;-140.72;0.00;52486.22;5030487;28;20457;-63
2022/09/14 07:41:43;;;;;;;1.50;0.63;;;;;;;-140.72;0.00;52490.28;5026705;28;20033;-63
2022/09/14 07:44:13;;;;;;;1.08;0.60;;;;;;;-140.72;0.00;52512.59;5030756;28;20033;-63
2022/09/14 07:46:40;;;;;;;0.95;0.60;;;;;;;-140.72;0.00;52486.22;5030394;28;20132;-63
2022/09/14 07:49:07;;;;;;;0.63;0.40;;;;;;;-140.72;0.00;52478.13;5031413;28;20030;-63
2022/09/14 07:51:33;;;;;;;1.63;0.70;;;;;;;-140.72;0.00;52520.72;5030745;28;20676;-64
2022/09/14 07:54:00;;;;;;;0.63;0.43;;;;;;;-140.72;0.00;52502.47;5030895;28;20117;-62
2022/09/14 07:56:26;;;;;;;1.67;0.65;;;;;;;-140.72;0.00;52514.63;5035465;28;20029;-63
2022/09/14 07:58:53;;;;;;;2.08;0.98;;;;;;;-140.72;0.00;52465.94;5039572;28;20641;-63
2022/09/14 08:01:22;;;;;;;1.00;0.45;;;;;;;-140.72;0.00;52486.22;5030117;28;20064;-64
2022/09/14 08:03:48;;;;;;;2.20;1.15;;;;;;;-140.72;0.00;52455.78;5030665;28;20029;-64
2022/09/14 08:06:18;;;;;;;2.97;0.85;;;;;;;-140.72;0.00;52500.44;5030892;28;20393;-64
2022/09/14 08:08:46;;;;;;;1.38;0.45;;;;;;;-140.72;0.00;52459.84;5030184;28;20041;-63
2022/09/14 08:11:31;;;;;;;1.98;1.10;;;;;;;-140.72;0.00;52512.59;5030727;28;20417;-63
2022/09/14 08:14:06;;;;;;;0.90;0.50;;;;;;;-140.72;0.00;52472.03;5029936;28;20022;-65
2022/09/14 08:16:33;;;;;;;2.50;0.82;;;;;;;-140.72;0.00;52486.22;5030717;28;20425;-64
2022/09/14 08:19:04;;;;;;;2.72;0.70;;;;;;;-140.72;0.00;52486.22;5031295;28;20029;-64
2022/09/14 08:21:31;;;;;;;0.98;0.65;;;;;;;-140.72;0.00;52490.28;5029712;28;20112;-64
2022/09/14 08:23:58;;;;;;;3.13;0.90;;;;;;;-140.72;0.00;52482.16;5032616;28;20457;-63
2022/09/14 08:26:25;;;;;;;2.20;0.88;;;;;;;-140.72;0.00;52478.13;5029953;28;20492;-63
2022/09/14 08:28:51;;;;;;;2.92;1.10;;;;;;;-140.72;0.00;52522.75;5029499;28;20040;-64
2022/09/14 08:31:20;;;;;;;3.50;0.75;;;;;;;-140.72;0.00;52514.63;5029895;28;20035;-65
2022/09/14 08:33:48;;;;;;;2.38;0.60;;;;;;;-140.72;0.00;52488.25;5019315;28;20536;-66
2022/09/14 08:36:17;;;;;;;6.65;1.05;;;;;;;-140.72;0.00;52465.94;5030973;28;20492;-64
2022/09/14 08:38:42;;;;;;;2.35;0.60;;;;;;;-140.72;0.00;52467.97;5030248;28;20025;-63
2022/09/14 08:41:21;;;;;;;4.20;0.80;;;;;;;-140.72;0.00;52463.91;5029525;28;20036;-63
2022/09/14 08:43:47;;;;;;;2.58;0.40;;;;;;;-140.72;0.00;52455.78;5029520;28;20469;-63
2022/09/14 08:46:35;;;;;;;2.20;0.90;;;;;;;-140.72;0.00;52492.31;5029964;28;20028;-63
2022/09/14 08:49:02;;;;;;;1.13;0.50;;;;;;;-140.72;0.00;52467.97;5019258;28;20048;-64
2022/09/14 08:51:28;;;;;;;1.67;0.28;;;;;;;-140.72;0.00;52439.56;5031019;28;20057;-64
2022/09/14 08:53:56;;;;;;;1.98;0.40;;;;;;;-140.72;0.00;52427.38;5048286;28;20032;-63
2022/09/14 08:56:27;;;;;;;1.88;0.55;;;;;;;-140.72;0.00;52449.72;5031795;28;20025;-63
2022/09/14 08:58:59;;;;;;;1.02;0.47;;;;;;;-140.72;0.00;52457.81;5039686;28;20025;-62
2022/09/14 09:01:55;;;;;;;2.50;0.40;;;;;;;-140.72;0.00;52423.31;5042015;28;20084;-62
2022/09/14 09:04:27;;;;;;;1.50;0.40;;;;;;;-140.72;0.00;52451.72;5042736;28;20033;-63
2022/09/14 09:07:07;;;;;;;3.55;0.30;;;;;;;-140.72;0.00;52476.09;5047962;28;20044;-63
2022/09/14 09:09:42;;;;;;;1.10;0.77;;;;;;;-140.72;0.00;52451.72;5029434;28;20033;-62
2022/09/14 09:12:22;;;;;;;3.08;0.77;;;;;;;-140.72;0.00;52429.41;5029216;28;20029;-61
2022/09/14 09:14:58;;;;;;;2.95;0.43;;;;;;;-140.72;0.00;52476.09;5021257;28;20030;-63
2022/09/14 09:17:37;;;;;;;1.10;0.40;;;;;;;-140.72;0.00;52500.44;5048290;28;20033;-63
2022/09/14 09:20:33;;;;;;;1.42;0.52;;;;;;;-140.72;0.00;52447.69;5046513;28;20069;-62
2022/09/14 09:23:16;;;;;;;2.33;0.77;;;;;;;-140.72;0.00;52439.56;5041174;28;20028;-63
2022/09/14 09:25:54;;;;;;;1.65;0.50;;;;;;;-140.72;0.00;52492.31;5018107;28;20486;-63
2022/09/14 09:28:21;;;;;;;0.82;0.57;;;;;;;-140.72;0.00;52431.44;5041218;28;20425;-63
2022/09/14 09:30:47;;;;;;;1.52;0.68;;;;;;;-140.72;0.00;52476.09;5029745;28;20483;-63
2022/09/14 09:33:31;;;;;;;1.70;0.70;;;;;;;-140.72;0.00;52439.56;5040397;28;20057;-62
2022/09/14 09:35:57;;;;;;;0.75;0.40;;;;;;;-140.72;0.00;52445.66;5041767;28;20155;-63
2022/09/14 09:38:25;;;;;;;3.40;0.70;;;;;;;-140.72;0.00;52459.84;5040284;28;20105;-62
2022/09/14 09:40:56;;;;;;;3.20;0.70;;;;;;;-140.72;0.00;52431.44;5029273;28;20112;-63
2022/09/14 09:43:22;;;;;;;1.75;0.20;;;;;;;-140.72;0.00;52486.22;5024733;28;20107;-63
2022/09/14 09:45:50;;;;;;;1.90;0.63;;;;;;;-140.72;0.00;52415.22;5038472;28;20458;-63
2022/09/14 09:48:19;;;;;;;2.70;0.75;;;;;;;-140.72;0.00;52419.28;5028642;28;20053;-62
2022/09/14 09:51:09;;;;;;;2.55;0.32;;;;;;;-140.72;0.00;52461.88;5020208;28;20029;-62
2022/09/14 09:53:44;;;;;;;1.50;0.40;;;;;;;-140.72;0.00;52449.72;5017463;28;20124;-63
2022/09/14 09:56:16;;;;;;;1.48;0.63;;;;;;;-140.72;0.00;52478.13;5027576;28;20061;-63
2022/09/14 09:58:42;;;;;;;0.98;0.35;;;;;;;-140.72;0.00;52470.00;5029350;28;20036;-64
2022/09/14 10:01:20;;;;;;;1.15;0.40;;;;;;;-140.72;0.00;52417.25;5028098;28;20108;-64
2022/09/14 10:04:06;;;;;;;2.65;0.43;;;;;;;-140.72;0.00;52449.72;5029126;28;20033;-63
2022/09/14 10:06:40;;;;;;;0.95;0.40;;;;;;;-140.72;0.00;52419.28;5015152;28;20208;-64
2022/09/14 10:09:15;;;;;;;1.83;0.57;;;;;;;-140.72;0.00;52388.84;5028791;28;20044;-63
2022/09/14 10:11:41;;;;;;;1.23;0.40;;;;;;;-140.72;0.00;52467.97;5029346;28;20417;-62
2022/09/14 10:14:32;;;;;;;3.40;0.60;;;;;;;-140.72;0.00;52449.72;5028336;28;20048;-63
2022/09/14 10:17:07;;;;;;;1.42;0.45;;;;;;;-140.72;0.00;52463.91;5030899;28;20497;-63
2022/09/14 10:19:33;;;;;;;2.58;0.65;;;;;;;-140.72;0.00;52465.94;5028890;28;20064;-64
2022/09/14 10:22:19;;;;;;;3.17;0.50;;;;;;;-140.72;0.00;52431.44;5028186;28;20026;-64
2022/09/14 10:24:56;;;;;;;6.28;0.70;;;;;;;-140.72;0.00;52467.97;5029728;28;20036;-65
2022/09/14 10:27:38;;;;;;;0.75;0.20;;;;;;;-140.72;0.00;52427.38;5030161;28;20032;-63
2022/09/14 10:30:31;;;;;;;1.17;0.50;;;;;;;-140.72;0.00;52421.28;5032493;28;20035;-64
2022/09/14 10:33:05;;;;;;;1.00;0.73;;;;;;;-140.72;0.00;52435.50;5031856;28;20072;-63
2022/09/14 10:35:48;;;;;;;2.50;0.40;;;;;;;-140.72;0.00;52423.31;5032487;28;20025;-62
2022/09/14 10:38:35;;;;;;;1.70;0.65;;;;;;;-140.72;0.00;52439.56;5031467;28;20033;-62
2022/09/14 10:41:12;;;;;;;1.58;0.52;;;;;;;-140.72;0.00;52443.63;5032151;28;20121;-62
2022/09/14 10:43:58;;;;;;;0.93;0.35;;;;;;;-140.72;0.00;52415.22;5032548;28;20060;-64
2022/09/14 10:46:41;;;;;;;0.77;0.30;;;;;;;-140.72;0.00;52447.69;5030883;28;20116;-62
2022/09/14 10:49:36;;;;;;;1.77;0.50;;;;;;;-140.72;0.00;52427.38;5032116;28;20076;-64
2022/09/14 10:52:09;;;;;;;1.50;0.63;;;;;;;-140.72;0.00;52411.16;5031826;28;20433;-63
2022/09/14 10:54:48;;;;;;;3.40;0.93;;;;;;;-140.72;0.00;52437.53;5031754;28;20099;-64
2022/09/14 10:57:25;;;;;;;0.77;0.40;;;;;;;-140.72;0.00;52396.94;5031609;28;20116;-64
2022/09/14 11:00:11;;;;;;;2.58;0.30;;;;;;;-140.72;0.00;52407.09;5030955;28;20337;-63
2022/09/14 11:02:45;;;;;;;3.03;0.65;;;;;;;-140.72;0.00;52417.25;5032280;28;20037;-64
2022/09/14 11:05:25;;;;;;;2.17;0.40;;;;;;;-140.72;0.00;52401.00;5050718;28;20186;-64
2022/09/14 11:08:02;;;;;;;0.75;0.50;;;;;;;-140.72;0.00;52427.38;5050117;28;20485;-64
2022/09/14 11:10:44;;;;;;;0.95;0.47;;;;;;;-140.72;0.00;52407.09;5045993;28;20035;-63
2022/09/14 11:13:42;;;;;;;0.95;0.50;;;;;;;-140.72;0.00;52421.28;5031345;28;20705;-64
2022/09/14 11:16:13;;;;;;;2.75;0.63;;;;;;;-140.72;0.00;52415.22;5026602;28;20489;-63
2022/09/14 11:19:26;;;;;;;0.82;0.40;;;;;;;-140.72;0.00;52380.72;5035828;28;20128;-64
2022/09/14 11:22:03;;;;;;;3.90;0.63;;;;;;;-140.72;0.00;52419.28;5016349;28;20365;-64
2022/09/14 11:24:39;;;;;;;0.70;0.43;;;;;;;-140.72;0.00;52394.91;5029739;28;20041;-65
2022/09/14 11:27:20;;;;;;;4.32;0.90;;;;;;;-140.72;0.00;52372.59;5040418;28;20028;-64
2022/09/14 11:29:50;;;;;;;2.45;0.70;;;;;;;-140.72;0.00;52340.13;5042698;28;20036;-64
2022/09/14 11:32:22;;;;;;;3.38;0.60;;;;;;;-140.72;0.00;52364.47;5021348;28;20462;-65
2022/09/14 11:34:57;;;;;;;2.05;0.60;;;;;;;-140.72;0.00;52356.38;5036043;28;20026;-64
2022/09/14 11:37:48;;;;;;;2.70;0.70;;;;;;;-140.72;0.00;52409.13;5038471;28;20030;-65
2022/09/14 11:40:19;;;;;;;1.15;0.40;;;;;;;-140.72;0.00;52354.34;5020530;28;20029;-66
2022/09/14 11:42:57;;;;;;;1.50;0.60;;;;;;;-140.72;0.00;52330.00;5035588;28;20083;-66